createdAt,value
2017-01-20T00:00:26.283Z,1029.41
2017-01-20T00:01:07.940Z,1029.35
2017-01-20T00:01:49.625Z,1029.36
2017-01-20T00:02:31.346Z,1029.32
2017-01-20T00:03:12.901Z,1029.32
2017-01-20T00:03:54.615Z,1029.32
2017-01-20T00:04:36.326Z,1029.31
2017-01-20T00:05:18.058Z,1029.29
2017-01-20T00:05:59.738Z,1029.24
2017-01-20T00:08:30.946Z,1029.21
2017-01-20T00:11:01.951Z,1029.27
2017-01-20T00:13:33.806Z,1029.22
2017-01-20T00:14:15.433Z,1029.29
2017-01-20T00:16:30.807Z,1029.23
2017-01-20T00:17:12.406Z,1029.24
2017-01-20T00:17:54.179Z,1029.19
2017-01-20T00:19:48.744Z,1029.17
2017-01-20T00:21:43.463Z,1029.2
2017-01-20T00:25:53.449Z,1029.18
2017-01-20T00:26:35.090Z,1029.19
2017-01-20T00:28:29.781Z,1029.19
2017-01-20T00:29:11.475Z,1029.24
2017-01-20T00:29:53.007Z,1029.26
2017-01-20T00:31:47.724Z,1029.26
2017-01-20T00:32:29.276Z,1029.27
2017-01-20T00:33:10.974Z,1029.22
2017-01-20T00:33:52.699Z,1029.22
2017-01-20T00:34:34.289Z,1029.19
2017-01-20T00:35:16.040Z,1029.2
2017-01-20T00:37:16.090Z,1029.22
2017-01-20T00:37:57.737Z,1029.19
2017-01-20T00:38:39.541Z,1029.2
2017-01-20T00:39:21.290Z,1029.18
2017-01-20T00:41:36.630Z,1029.12
2017-01-20T00:42:18.425Z,1029.15
2017-01-20T00:43:00.183Z,1029.12
2017-01-20T00:43:41.957Z,1029.13
2017-01-20T00:44:23.654Z,1029.15
2017-01-20T00:45:05.437Z,1029.12
2017-01-20T00:45:47.176Z,1029.12
2017-01-20T00:46:28.867Z,1029.11
2017-01-20T00:47:10.617Z,1029.09
2017-01-20T00:47:52.351Z,1029.09
2017-01-20T00:48:34.052Z,1029.09
2017-01-20T00:49:15.679Z,1029.09
2017-01-20T00:51:31.029Z,1029.09
2017-01-20T00:52:12.655Z,1029.1
2017-01-20T00:52:54.344Z,1029.14
2017-01-20T00:53:36.149Z,1029.16
2017-01-20T00:54:17.730Z,1029.16
2017-01-20T00:54:59.484Z,1029.17
2017-01-20T00:55:41.119Z,1029.15
2017-01-20T00:56:22.800Z,1029.16
2017-01-20T00:57:04.475Z,1029.15
2017-01-20T00:57:46.107Z,1029.18
2017-01-20T00:58:27.887Z,1029.18
2017-01-20T00:59:09.600Z,1029.15
2017-01-20T00:59:51.307Z,1029.19
2017-01-20T01:01:45.903Z,1029.1
2017-01-20T01:02:27.444Z,1029.11
2017-01-20T01:03:09.099Z,1029.13
2017-01-20T01:03:50.577Z,1029.09
2017-01-20T01:06:10.983Z,1029.1
2017-01-20T01:06:52.612Z,1029.09
2017-01-20T01:07:33.891Z,1029.11
2017-01-20T01:10:04.905Z,1029.04
2017-01-20T01:10:46.647Z,1029.04
2017-01-20T01:11:28.334Z,1029.07
2017-01-20T01:12:10.090Z,1029.06
2017-01-20T01:12:51.676Z,1029.06
2017-01-20T01:13:33.027Z,1029.07
2017-01-20T01:14:14.621Z,1029.08
2017-01-20T01:14:56.321Z,1029.06
2017-01-20T01:15:37.903Z,1029.06
2017-01-20T01:17:53.298Z,1029.11
2017-01-20T01:18:35.045Z,1029.11
2017-01-20T01:19:16.789Z,1029.11
2017-01-20T01:19:58.504Z,1029.08
2017-01-20T01:20:40.213Z,1029.11
2017-01-20T01:21:21.976Z,1029.11
2017-01-20T01:22:03.722Z,1029.11
2017-01-20T01:22:45.468Z,1029.08
2017-01-20T01:23:27.262Z,1029.1
2017-01-20T01:24:09.001Z,1029.13
2017-01-20T01:24:50.755Z,1029.12
2017-01-20T01:25:32.499Z,1029.17
2017-01-20T01:26:14.276Z,1029.1
2017-01-20T01:26:55.876Z,1029.16
2017-01-20T01:27:37.365Z,1029.11
2017-01-20T01:28:19.123Z,1029.15
2017-01-20T01:29:00.493Z,1029.13
2017-01-20T01:29:42.212Z,1029.15
2017-01-20T01:30:23.940Z,1029.15
2017-01-20T01:31:05.705Z,1029.15
2017-01-20T01:31:47.404Z,1029.22
2017-01-20T01:32:29.084Z,1029.2
2017-01-20T01:33:10.656Z,1029.21
2017-01-20T01:33:52.250Z,1029.21
2017-01-20T01:35:46.897Z,1029.15
2017-01-20T01:36:28.661Z,1029.13
2017-01-20T01:37:10.335Z,1029.16
2017-01-20T01:37:51.937Z,1029.17
2017-01-20T01:38:33.631Z,1029.12
2017-01-20T01:41:04.739Z,1029.12
2017-01-20T01:41:46.482Z,1029.08
2017-01-20T01:42:28.212Z,1029.09
2017-01-20T01:43:09.986Z,1029.12
2017-01-20T01:43:51.636Z,1029.05
2017-01-20T01:44:33.370Z,1029.07
2017-01-20T01:46:28.156Z,1029.02
2017-01-20T01:47:09.695Z,1029.05
2017-01-20T01:49:30.453Z,1029.03
2017-01-20T01:50:11.863Z,1029.07
2017-01-20T01:50:53.528Z,1029.05
2017-01-20T01:52:53.608Z,1029.04
2017-01-20T01:53:35.230Z,1029.04
2017-01-20T01:54:16.915Z,1029.04
2017-01-20T01:54:58.620Z,1029.08
2017-01-20T01:55:40.429Z,1029.04
2017-01-20T01:56:22.083Z,1029.05
2017-01-20T01:57:03.760Z,1029.05
2017-01-20T01:57:45.283Z,1029.12
2017-01-20T01:58:26.708Z,1029.12
2017-01-20T01:59:08.489Z,1029.08
2017-01-20T01:59:50.255Z,1029.06
2017-01-20T02:00:30.803Z,1029.1
2017-01-20T02:01:11.340Z,1029.08
2017-01-20T02:01:51.874Z,1029.09
2017-01-20T02:02:32.403Z,1029.08
2017-01-20T02:03:12.925Z,1029.09
2017-01-20T02:03:53.448Z,1029.09
2017-01-20T02:04:33.984Z,1029.13
2017-01-20T02:05:14.512Z,1029.12
2017-01-20T02:05:55.024Z,1029.14
2017-01-20T02:06:35.564Z,1029.14
2017-01-20T02:07:16.119Z,1029.14
2017-01-20T02:07:56.647Z,1029.13
2017-01-20T02:08:37.178Z,1029.15
2017-01-20T02:09:17.703Z,1029.14
2017-01-20T02:09:58.235Z,1029.1
2017-01-20T02:10:38.766Z,1029.12
2017-01-20T02:11:19.289Z,1029.16
2017-01-20T02:11:59.816Z,1029.1
2017-01-20T02:12:40.339Z,1029.15
2017-01-20T02:13:20.869Z,1029.14
2017-01-20T02:14:01.396Z,1029.14
2017-01-20T02:14:41.935Z,1029.1
2017-01-20T02:15:22.460Z,1029.15
2017-01-20T02:16:02.973Z,1029.09
2017-01-20T02:16:43.538Z,1029.16
2017-01-20T02:17:24.042Z,1029.18
2017-01-20T02:18:04.576Z,1029.2
2017-01-20T02:18:45.093Z,1029.19
2017-01-20T02:19:25.621Z,1029.15
2017-01-20T02:20:06.149Z,1029.2
2017-01-20T02:20:46.671Z,1029.16
2017-01-20T02:21:27.194Z,1029.09
2017-01-20T02:22:07.725Z,1029.07
2017-01-20T02:22:48.253Z,1029.12
2017-01-20T02:23:28.787Z,1029.1
2017-01-20T02:24:09.305Z,1029.09
2017-01-20T02:24:49.825Z,1029.11
2017-01-20T02:25:30.363Z,1029.06
2017-01-20T02:26:10.889Z,1029.08
2017-01-20T02:26:51.416Z,1029.07
2017-01-20T02:27:31.943Z,1029.07
2017-01-20T02:28:12.467Z,1029.08
2017-01-20T02:28:52.999Z,1029.05
2017-01-20T02:29:33.533Z,1029.07
2017-01-20T02:30:14.058Z,1029.01
2017-01-20T02:30:54.578Z,1028.99
2017-01-20T02:31:35.113Z,1029.04
2017-01-20T02:32:15.641Z,1029.01
2017-01-20T02:32:56.158Z,1028.97
2017-01-20T02:33:36.679Z,1029
2017-01-20T02:34:17.208Z,1028.98
2017-01-20T02:34:57.744Z,1029.02
2017-01-20T02:35:38.275Z,1029.02
2017-01-20T02:36:18.801Z,1029.07
2017-01-20T02:36:59.328Z,1029.05
2017-01-20T02:37:39.859Z,1029.08
2017-01-20T02:38:20.389Z,1029.1
2017-01-20T02:39:00.923Z,1029.09
2017-01-20T02:39:41.436Z,1029.04
2017-01-20T02:40:21.965Z,1029.09
2017-01-20T02:41:02.488Z,1029.07
2017-01-20T02:41:43.006Z,1029.03
2017-01-20T02:42:23.533Z,1029
2017-01-20T02:43:04.058Z,1029.01
2017-01-20T02:43:44.594Z,1029.09
2017-01-20T02:44:25.117Z,1029.1
2017-01-20T02:45:05.637Z,1029.02
2017-01-20T02:45:46.171Z,1029.06
2017-01-20T02:46:26.701Z,1029.06
2017-01-20T02:47:07.221Z,1029.07
2017-01-20T02:47:47.747Z,1029.06
2017-01-20T02:48:28.267Z,1029.07
2017-01-20T02:49:08.797Z,1029.07
2017-01-20T02:49:49.328Z,1029.07
2017-01-20T02:50:29.851Z,1029.06
2017-01-20T02:51:10.377Z,1029.07
2017-01-20T02:51:50.917Z,1029.09
2017-01-20T02:52:31.445Z,1029.12
2017-01-20T02:53:11.979Z,1029.12
2017-01-20T02:53:52.503Z,1029.11
2017-01-20T02:54:33.028Z,1029.15
2017-01-20T02:55:13.589Z,1029.16
2017-01-20T02:55:54.117Z,1029.16
2017-01-20T02:56:34.648Z,1029.18
2017-01-20T02:57:15.180Z,1029.22
2017-01-20T02:57:55.709Z,1029.18
2017-01-20T02:58:36.230Z,1029.16
2017-01-20T02:59:16.757Z,1029.22
2017-01-20T02:59:57.296Z,1029.21
2017-01-20T03:00:37.824Z,1029.2
2017-01-20T03:01:18.341Z,1029.19
2017-01-20T03:01:58.877Z,1029.23
2017-01-20T03:02:39.409Z,1029.29
2017-01-20T03:03:19.948Z,1029.22
2017-01-20T03:04:00.468Z,1029.22
2017-01-20T03:04:40.996Z,1029.19
2017-01-20T03:05:21.534Z,1029.19
2017-01-20T03:06:02.059Z,1029.19
2017-01-20T03:06:42.589Z,1029.19
2017-01-20T03:07:23.119Z,1029.19
2017-01-20T03:08:03.648Z,1029.18
2017-01-20T03:08:44.174Z,1029.12
2017-01-20T03:09:24.705Z,1029.15
2017-01-20T03:10:05.234Z,1029.18
2017-01-20T03:10:45.762Z,1029.17
2017-01-20T03:11:26.293Z,1029.17
2017-01-20T03:12:06.827Z,1029.17
2017-01-20T03:12:47.353Z,1029.12
2017-01-20T03:13:27.867Z,1029.14
2017-01-20T03:14:08.391Z,1029.17
2017-01-20T03:14:48.922Z,1029.16
2017-01-20T03:15:29.453Z,1029.15
2017-01-20T03:16:09.966Z,1029.11
2017-01-20T03:16:50.490Z,1029.13
2017-01-20T03:17:31.018Z,1029.16
2017-01-20T03:18:11.550Z,1029.14
2017-01-20T03:18:52.081Z,1029.12
2017-01-20T03:19:32.599Z,1029.12
2017-01-20T03:20:13.140Z,1029.12
2017-01-20T03:20:53.676Z,1029.14
2017-01-20T03:21:34.213Z,1029.14
2017-01-20T03:22:14.744Z,1029.13
2017-01-20T03:22:55.269Z,1029.14
2017-01-20T03:23:35.791Z,1029.16
2017-01-20T03:24:16.321Z,1029.14
2017-01-20T03:24:56.844Z,1029.12
2017-01-20T03:25:37.366Z,1029.13
2017-01-20T03:26:17.894Z,1029.14
2017-01-20T03:26:58.424Z,1029.13
2017-01-20T03:27:38.943Z,1029.15
2017-01-20T03:28:19.476Z,1029.11
2017-01-20T03:28:59.981Z,1029.12
2017-01-20T03:29:40.505Z,1029.14
2017-01-20T03:30:21.050Z,1029.1
2017-01-20T03:31:01.573Z,1029.06
2017-01-20T03:31:42.107Z,1029.06
2017-01-20T03:32:22.637Z,1029.07
2017-01-20T03:33:03.168Z,1029.07
2017-01-20T03:33:43.689Z,1029.13
2017-01-20T03:34:24.208Z,1029.13
2017-01-20T03:35:04.739Z,1029.1
2017-01-20T03:35:45.272Z,1029.14
2017-01-20T03:36:25.797Z,1029.11
2017-01-20T03:37:06.328Z,1029.09
2017-01-20T03:37:46.861Z,1029.14
2017-01-20T03:38:27.387Z,1029.14
2017-01-20T03:39:07.921Z,1029.19
2017-01-20T03:39:48.453Z,1029.15
2017-01-20T03:40:28.974Z,1029.15
2017-01-20T03:41:09.503Z,1029.11
2017-01-20T03:41:50.031Z,1029.16
2017-01-20T03:42:30.552Z,1029.15
2017-01-20T03:43:11.082Z,1029.12
2017-01-20T03:43:51.613Z,1029.16
2017-01-20T03:44:32.141Z,1029.14
2017-01-20T03:45:12.674Z,1029.16
2017-01-20T03:45:53.203Z,1029.15
2017-01-20T03:46:33.720Z,1029.16
2017-01-20T03:47:14.256Z,1029.17
2017-01-20T03:47:54.793Z,1029.17
2017-01-20T03:48:35.321Z,1029.18
2017-01-20T03:49:15.851Z,1029.2
2017-01-20T03:49:56.376Z,1029.15
2017-01-20T03:50:36.905Z,1029.19
2017-01-20T03:51:17.431Z,1029.17
2017-01-20T03:51:57.957Z,1029.16
2017-01-20T03:52:38.481Z,1029.15
2017-01-20T03:53:19.004Z,1029.17
2017-01-20T03:53:59.539Z,1029.13
2017-01-20T03:54:40.071Z,1029.13
2017-01-20T03:55:20.576Z,1029.16
2017-01-20T03:56:01.108Z,1029.16
2017-01-20T03:56:41.634Z,1029.15
2017-01-20T03:57:22.182Z,1029.16
2017-01-20T03:58:02.713Z,1029.14
2017-01-20T03:58:43.237Z,1029.14
2017-01-20T03:59:23.762Z,1029.11
2017-01-20T04:00:04.294Z,1029.14
2017-01-20T04:00:44.819Z,1029.15
2017-01-20T04:01:25.341Z,1029.15
2017-01-20T04:02:05.874Z,1029.16
2017-01-20T04:02:46.400Z,1029.14
2017-01-20T04:03:26.929Z,1029.13
2017-01-20T04:04:07.462Z,1029.14
2017-01-20T04:04:47.993Z,1029.12
2017-01-20T04:05:28.507Z,1029.18
2017-01-20T04:06:09.052Z,1029.16
2017-01-20T04:06:49.579Z,1029.18
2017-01-20T04:07:30.116Z,1029.15
2017-01-20T04:08:10.642Z,1029.13
2017-01-20T04:08:51.176Z,1029.12
2017-01-20T04:09:31.727Z,1029.12
2017-01-20T04:10:12.254Z,1029.12
2017-01-20T04:10:52.781Z,1029.08
2017-01-20T04:11:33.315Z,1029.12
2017-01-20T04:12:13.843Z,1029.11
2017-01-20T04:12:54.375Z,1029.11
2017-01-20T04:13:34.905Z,1029.08
2017-01-20T04:14:15.438Z,1029.1
2017-01-20T04:14:55.967Z,1029.12
2017-01-20T04:15:36.494Z,1029.09
2017-01-20T04:16:17.029Z,1029.09
2017-01-20T04:16:57.555Z,1029.1
2017-01-20T04:17:38.090Z,1029.1
2017-01-20T04:18:18.622Z,1029.1
2017-01-20T04:18:59.148Z,1029.1
2017-01-20T04:19:39.664Z,1029.12
2017-01-20T04:20:20.191Z,1029.08
2017-01-20T04:21:00.729Z,1029.09
2017-01-20T04:21:41.246Z,1029.07
2017-01-20T04:22:21.771Z,1029.09
2017-01-20T04:23:02.303Z,1029.06
2017-01-20T04:23:42.837Z,1029.09
2017-01-20T04:24:23.357Z,1029.09
2017-01-20T04:25:03.883Z,1029.08
2017-01-20T04:25:44.409Z,1029.08
2017-01-20T04:26:24.944Z,1029.07
2017-01-20T04:27:05.469Z,1029.02
2017-01-20T04:27:45.988Z,1029.04
2017-01-20T04:28:26.518Z,1029.03
2017-01-20T04:29:07.044Z,1029.06
2017-01-20T04:29:47.574Z,1029.05
2017-01-20T04:30:28.093Z,1029.09
2017-01-20T04:31:08.680Z,1029.06
2017-01-20T04:31:49.187Z,1029.06
2017-01-20T04:32:29.716Z,1029.03
2017-01-20T04:33:10.247Z,1029.06
2017-01-20T04:33:50.778Z,1029.07
2017-01-20T04:34:31.303Z,1029.09
2017-01-20T04:35:11.840Z,1029.07
2017-01-20T04:35:52.365Z,1029.08
2017-01-20T04:36:32.901Z,1029.07
2017-01-20T04:37:13.430Z,1029.06
2017-01-20T04:37:53.954Z,1029.06
2017-01-20T04:38:34.481Z,1029.07
2017-01-20T04:39:15.014Z,1029.05
2017-01-20T04:39:55.553Z,1029.05
2017-01-20T04:40:36.091Z,1029.06
2017-01-20T04:41:16.609Z,1029.04
2017-01-20T04:41:57.138Z,1029.05
2017-01-20T04:42:37.670Z,1029.02
2017-01-20T04:43:18.220Z,1029.07
2017-01-20T04:43:58.754Z,1029.09
2017-01-20T04:44:39.289Z,1029.11
2017-01-20T04:45:19.812Z,1029.16
2017-01-20T04:46:00.343Z,1029.1
2017-01-20T04:46:40.877Z,1029.12
2017-01-20T04:47:21.409Z,1029.06
2017-01-20T04:48:01.928Z,1029.13
2017-01-20T04:48:42.448Z,1029.1
2017-01-20T04:49:22.997Z,1029.13
2017-01-20T04:50:03.524Z,1029.11
2017-01-20T04:50:44.061Z,1029.08
2017-01-20T04:51:24.612Z,1029.13
2017-01-20T04:52:05.144Z,1029.08
2017-01-20T04:52:45.667Z,1029.11
2017-01-20T04:53:26.199Z,1029.11
2017-01-20T04:54:06.728Z,1029.08
2017-01-20T04:54:47.257Z,1029.05
2017-01-20T04:55:27.783Z,1029.04
2017-01-20T04:56:08.312Z,1029.04
2017-01-20T04:56:48.841Z,1029.03
2017-01-20T04:57:29.380Z,1029.03
2017-01-20T04:58:09.913Z,1029.04
2017-01-20T04:58:50.445Z,1029
2017-01-20T04:59:30.969Z,1029.04
2017-01-20T05:00:11.493Z,1029.03
2017-01-20T05:00:52.103Z,1029.02
2017-01-20T05:01:32.625Z,1029
2017-01-20T05:02:13.154Z,1029
2017-01-20T05:02:53.670Z,1028.97
2017-01-20T05:03:34.203Z,1028.99
2017-01-20T05:04:14.731Z,1029.02
2017-01-20T05:04:55.258Z,1029.05
2017-01-20T05:05:35.787Z,1029.02
2017-01-20T05:06:16.315Z,1028.97
2017-01-20T05:06:56.850Z,1028.96
2017-01-20T05:07:37.379Z,1028.97
2017-01-20T05:08:17.908Z,1028.96
2017-01-20T05:08:58.442Z,1028.97
2017-01-20T05:09:38.966Z,1028.96
2017-01-20T05:10:19.485Z,1028.92
2017-01-20T05:11:00.021Z,1028.94
2017-01-20T05:11:40.555Z,1028.94
2017-01-20T05:12:21.159Z,1028.95
2017-01-20T05:13:01.685Z,1028.92
2017-01-20T05:13:42.216Z,1028.92
2017-01-20T05:14:22.745Z,1028.92
2017-01-20T05:15:03.340Z,1028.91
2017-01-20T05:15:43.929Z,1028.97
2017-01-20T05:16:24.450Z,1029.02
2017-01-20T05:17:04.974Z,1029.04
2017-01-20T05:17:45.511Z,1029.04
2017-01-20T05:18:26.047Z,1029.03
2017-01-20T05:19:06.584Z,1029.03
2017-01-20T05:19:47.116Z,1029.07
2017-01-20T05:20:27.663Z,1029.04
2017-01-20T05:21:08.178Z,1029.04
2017-01-20T05:21:48.702Z,1029.04
2017-01-20T05:22:29.240Z,1029.06
2017-01-20T05:23:09.769Z,1029.04
2017-01-20T05:23:50.296Z,1029.06
2017-01-20T05:24:30.825Z,1029.1
2017-01-20T05:25:11.366Z,1029.04
2017-01-20T05:25:51.907Z,1029.1
2017-01-20T05:26:32.443Z,1029.08
2017-01-20T05:27:12.982Z,1029.07
2017-01-20T05:27:53.512Z,1029.06
2017-01-20T05:28:34.049Z,1029.07
2017-01-20T05:29:14.634Z,1029.06
2017-01-20T05:29:55.176Z,1029.03
2017-01-20T05:30:35.794Z,1029.03
2017-01-20T05:31:16.440Z,1029.03
2017-01-20T05:31:57.082Z,1029.01
2017-01-20T05:32:37.757Z,1029.02
2017-01-20T05:35:07.299Z,1029.06
2017-01-20T05:35:47.872Z,1029.06
2017-01-20T05:36:28.456Z,1029.05
2017-01-20T05:37:09.065Z,1029.07
2017-01-20T05:37:49.795Z,1029.08
2017-01-20T05:38:30.601Z,1029.07
2017-01-20T05:39:11.241Z,1029.04
2017-01-20T05:39:51.820Z,1029.04
2017-01-20T05:40:32.347Z,1029
2017-01-20T05:41:12.912Z,1029.04
2017-01-20T05:41:53.466Z,1029.03
2017-01-20T05:42:34.089Z,1029.03
2017-01-20T05:43:14.732Z,1029.03
2017-01-20T05:43:55.384Z,1029.04
2017-01-20T05:44:35.959Z,1029.03
2017-01-20T05:45:16.560Z,1029.02
2017-01-20T05:45:57.183Z,1028.99
2017-01-20T05:46:37.680Z,1029.01
2017-01-20T05:47:18.218Z,1029.04
2017-01-20T05:47:58.726Z,1028.99
2017-01-20T05:48:39.283Z,1029
2017-01-20T05:49:19.827Z,1028.97
2017-01-20T05:50:00.421Z,1028.98
2017-01-20T05:50:40.890Z,1028.98
2017-01-20T05:51:21.494Z,1028.98
2017-01-20T05:52:02.096Z,1029.03
2017-01-20T05:52:42.633Z,1029
2017-01-20T05:53:23.203Z,1029
2017-01-20T05:54:03.828Z,1028.99
2017-01-20T05:54:44.442Z,1028.97
2017-01-20T05:55:25.009Z,1028.96
2017-01-20T05:56:05.571Z,1028.94
2017-01-20T05:56:46.087Z,1028.95
2017-01-20T05:57:26.596Z,1028.96
2017-01-20T05:58:07.111Z,1028.93
2017-01-20T05:58:47.607Z,1028.94
2017-01-20T05:59:28.128Z,1028.97
2017-01-20T06:00:08.648Z,1028.96
2017-01-20T06:00:49.180Z,1028.96
2017-01-20T06:01:29.703Z,1028.97
2017-01-20T06:02:10.228Z,1028.99
2017-01-20T06:02:50.782Z,1028.98
2017-01-20T06:03:31.300Z,1029.01
2017-01-20T06:04:11.827Z,1029
2017-01-20T06:04:52.339Z,1028.99
2017-01-20T06:05:32.862Z,1028.94
2017-01-20T06:06:13.388Z,1028.93
2017-01-20T06:06:53.926Z,1028.93
2017-01-20T06:07:34.457Z,1028.95
2017-01-20T06:08:14.983Z,1028.97
2017-01-20T06:08:55.512Z,1028.97
2017-01-20T06:09:36.042Z,1028.93
2017-01-20T06:10:16.580Z,1028.95
2017-01-20T06:10:57.102Z,1028.92
2017-01-20T06:11:37.619Z,1028.91
2017-01-20T06:12:18.162Z,1028.92
2017-01-20T06:12:58.695Z,1028.98
2017-01-20T06:13:39.224Z,1028.93
2017-01-20T06:14:19.758Z,1028.89
2017-01-20T06:15:00.314Z,1028.93
2017-01-20T06:15:40.840Z,1028.88
2017-01-20T06:16:21.373Z,1028.83
2017-01-20T06:17:01.897Z,1028.84
2017-01-20T06:17:42.425Z,1028.87
2017-01-20T06:18:22.940Z,1028.86
2017-01-20T06:19:03.483Z,1028.86
2017-01-20T06:19:44.002Z,1028.85
2017-01-20T06:20:24.534Z,1028.85
2017-01-20T06:21:05.063Z,1028.84
2017-01-20T06:21:45.590Z,1028.86
2017-01-20T06:22:26.123Z,1028.85
2017-01-20T06:23:06.652Z,1028.85
2017-01-20T06:23:47.183Z,1028.85
2017-01-20T06:24:27.714Z,1028.86
2017-01-20T06:25:08.243Z,1028.87
2017-01-20T06:25:48.774Z,1028.86
2017-01-20T06:26:29.306Z,1028.88
2017-01-20T06:27:09.841Z,1028.9
2017-01-20T06:27:50.389Z,1028.92
2017-01-20T06:28:30.919Z,1028.95
2017-01-20T06:29:11.473Z,1028.94
2017-01-20T06:29:51.975Z,1028.94
2017-01-20T06:30:32.507Z,1028.93
2017-01-20T06:31:13.041Z,1029
2017-01-20T06:31:53.583Z,1028.99
2017-01-20T06:32:34.099Z,1028.96
2017-01-20T06:33:14.627Z,1029.01
2017-01-20T06:33:55.159Z,1028.97
2017-01-20T06:34:35.689Z,1028.99
2017-01-20T06:35:16.220Z,1028.97
2017-01-20T06:35:56.748Z,1029
2017-01-20T06:36:37.268Z,1029.02
2017-01-20T06:37:17.797Z,1029.01
2017-01-20T06:37:58.330Z,1029.03
2017-01-20T06:38:38.851Z,1029.06
2017-01-20T06:39:19.380Z,1029.03
2017-01-20T06:39:59.914Z,1029.03
2017-01-20T06:42:29.404Z,1029.05
2017-01-20T06:43:09.933Z,1029.03
2017-01-20T06:43:50.457Z,1029.06
2017-01-20T06:44:30.988Z,1029.05
2017-01-20T06:45:11.516Z,1029.04
2017-01-20T06:45:52.133Z,1029.03
2017-01-20T06:46:32.661Z,1029.07
2017-01-20T06:47:13.186Z,1029.05
2017-01-20T06:47:53.705Z,1029.08
2017-01-20T06:48:34.232Z,1029.04
2017-01-20T06:49:14.754Z,1029.03
2017-01-20T06:49:55.281Z,1029.05
2017-01-20T06:50:35.812Z,1029.05
2017-01-20T06:51:16.329Z,1029.06
2017-01-20T06:51:56.859Z,1029.1
2017-01-20T06:52:37.377Z,1029.1
2017-01-20T06:53:17.904Z,1029.11
2017-01-20T06:53:58.434Z,1029.11
2017-01-20T06:54:38.953Z,1029.06
2017-01-20T06:55:19.482Z,1029.1
2017-01-20T06:55:59.998Z,1029.12
2017-01-20T06:56:40.524Z,1029.14
2017-01-20T06:57:21.042Z,1029.15
2017-01-20T06:58:02.577Z,1029.17
2017-01-20T06:58:43.162Z,1029.16
2017-01-20T06:59:23.697Z,1029.13
2017-01-20T07:00:04.234Z,1029.14
2017-01-20T07:00:44.762Z,1029.15
2017-01-20T07:01:25.289Z,1029.13
2017-01-20T07:02:05.809Z,1029.14
2017-01-20T07:02:46.326Z,1029.16
2017-01-20T07:03:26.855Z,1029.18
2017-01-20T07:04:07.388Z,1029.16
2017-01-20T07:04:47.908Z,1029.18
2017-01-20T07:05:28.450Z,1029.16
2017-01-20T07:06:08.985Z,1029.18
2017-01-20T07:06:49.513Z,1029.17
2017-01-20T07:07:30.115Z,1029.18
2017-01-20T07:08:10.645Z,1029.17
2017-01-20T07:08:51.172Z,1029.17
2017-01-20T07:09:31.699Z,1029.17
2017-01-20T07:10:12.233Z,1029.21
2017-01-20T07:10:52.764Z,1029.24
2017-01-20T07:11:33.295Z,1029.21
2017-01-20T07:12:13.863Z,1029.23
2017-01-20T07:12:54.391Z,1029.23
2017-01-20T07:13:34.928Z,1029.2
2017-01-20T07:14:15.449Z,1029.2
2017-01-20T07:14:55.985Z,1029.18
2017-01-20T07:15:36.507Z,1029.2
2017-01-20T07:16:17.038Z,1029.21
2017-01-20T07:16:57.619Z,1029.18
2017-01-20T07:17:38.874Z,1029.19
2017-01-20T07:18:19.936Z,1029.19
2017-01-20T07:19:00.461Z,1029.18
2017-01-20T07:19:40.981Z,1029.21
2017-01-20T07:20:21.512Z,1029.24
2017-01-20T07:21:03.780Z,1029.23
2017-01-20T07:21:44.306Z,1029.22
2017-01-20T07:22:24.821Z,1029.18
2017-01-20T07:23:05.343Z,1029.2
2017-01-20T07:23:45.861Z,1029.21
2017-01-20T07:24:26.382Z,1029.22
2017-01-20T07:25:06.914Z,1029.21
2017-01-20T07:25:47.466Z,1029.22
2017-01-20T07:26:27.997Z,1029.22
2017-01-20T07:27:08.538Z,1029.25
2017-01-20T07:27:49.065Z,1029.27
2017-01-20T07:28:29.584Z,1029.23
2017-01-20T07:29:10.112Z,1029.25
2017-01-20T07:29:50.647Z,1029.22
2017-01-20T07:30:31.173Z,1029.2
2017-01-20T07:31:11.707Z,1029.23
2017-01-20T07:31:52.232Z,1029.25
2017-01-20T07:32:32.758Z,1029.24
2017-01-20T07:33:13.290Z,1029.25
2017-01-20T07:33:53.827Z,1029.22
2017-01-20T07:34:34.359Z,1029.26
2017-01-20T07:35:14.884Z,1029.22
2017-01-20T07:35:55.479Z,1029.26
2017-01-20T07:36:36.012Z,1029.23
2017-01-20T07:37:16.532Z,1029.23
2017-01-20T07:37:57.068Z,1029.26
2017-01-20T07:38:37.597Z,1029.23
2017-01-20T07:39:18.134Z,1029.25
2017-01-20T07:39:58.663Z,1029.26
2017-01-20T07:40:39.185Z,1029.25
2017-01-20T07:41:19.731Z,1029.2
2017-01-20T07:42:00.233Z,1029.25
2017-01-20T07:42:40.759Z,1029.24
2017-01-20T07:43:21.284Z,1029.19
2017-01-20T07:44:01.811Z,1029.2
2017-01-20T07:44:42.341Z,1029.17
2017-01-20T07:45:22.874Z,1029.16
2017-01-20T07:46:03.402Z,1029.19
2017-01-20T07:46:43.932Z,1029.19
2017-01-20T07:47:24.461Z,1029.17
2017-01-20T07:48:04.992Z,1029.19
2017-01-20T07:48:45.517Z,1029.19
2017-01-20T07:49:26.038Z,1029.19
2017-01-20T07:50:06.571Z,1029.2
2017-01-20T07:50:47.100Z,1029.2
2017-01-20T07:51:27.637Z,1029.17
2017-01-20T07:52:08.164Z,1029.19
2017-01-20T07:52:48.690Z,1029.21
2017-01-20T07:53:29.226Z,1029.21
2017-01-20T07:54:09.735Z,1029.2
2017-01-20T07:54:50.264Z,1029.22
2017-01-20T07:55:30.786Z,1029.2
2017-01-20T07:56:11.299Z,1029.19
2017-01-20T07:56:51.830Z,1029.21
2017-01-20T07:57:32.342Z,1029.18
2017-01-20T07:58:12.875Z,1029.18
2017-01-20T07:58:53.402Z,1029.19
2017-01-20T07:59:33.938Z,1029.21
2017-01-20T08:00:14.470Z,1029.21
2017-01-20T08:00:54.988Z,1029.23
2017-01-20T08:01:35.523Z,1029.21
2017-01-20T08:02:16.053Z,1029.2
2017-01-20T08:02:56.588Z,1029.22
2017-01-20T08:03:37.118Z,1029.24
2017-01-20T08:04:17.646Z,1029.24
2017-01-20T08:04:58.176Z,1029.24
2017-01-20T08:05:38.706Z,1029.24
2017-01-20T08:06:19.258Z,1029.22
2017-01-20T08:06:59.790Z,1029.23
2017-01-20T08:07:40.320Z,1029.24
2017-01-20T08:08:20.845Z,1029.25
2017-01-20T08:09:01.381Z,1029.25
2017-01-20T08:09:42.005Z,1029.22
2017-01-20T08:10:22.537Z,1029.18
2017-01-20T08:11:03.074Z,1029.21
2017-01-20T08:11:43.588Z,1029.18
2017-01-20T08:12:24.124Z,1029.21
2017-01-20T08:13:04.653Z,1029.21
2017-01-20T08:13:45.181Z,1029.2
2017-01-20T08:14:25.702Z,1029.18
2017-01-20T08:15:06.226Z,1029.19
2017-01-20T08:15:46.757Z,1029.19
2017-01-20T08:16:27.288Z,1029.19
2017-01-20T08:17:07.801Z,1029.16
2017-01-20T08:17:48.333Z,1029.17
2017-01-20T08:18:28.863Z,1029.15
2017-01-20T08:19:09.390Z,1029.16
2017-01-20T08:19:49.907Z,1029.14
2017-01-20T08:20:30.436Z,1029.12
2017-01-20T08:21:10.964Z,1029.09
2017-01-20T08:21:51.497Z,1029.09
2017-01-20T08:22:32.029Z,1029.13
2017-01-20T08:23:12.558Z,1029.16
2017-01-20T08:23:53.156Z,1029.16
2017-01-20T08:24:33.684Z,1029.1
2017-01-20T08:25:14.208Z,1029.15
2017-01-20T08:25:54.740Z,1029.14
2017-01-20T08:26:35.256Z,1029.11
2017-01-20T08:27:15.794Z,1029.12
2017-01-20T08:27:56.318Z,1029.13
2017-01-20T08:28:36.844Z,1029.12
2017-01-20T08:29:17.373Z,1029.14
2017-01-20T08:29:57.899Z,1029.09
2017-01-20T08:30:38.426Z,1029.15
2017-01-20T08:31:18.955Z,1029.15
2017-01-20T08:31:59.480Z,1029.12
2017-01-20T08:32:39.998Z,1029.12
2017-01-20T08:33:20.533Z,1029.14
2017-01-20T08:34:01.048Z,1029.17
2017-01-20T08:34:41.573Z,1029.18
2017-01-20T08:35:22.104Z,1029.2
2017-01-20T08:36:02.636Z,1029.17
2017-01-20T08:36:43.159Z,1029.19
2017-01-20T08:37:23.692Z,1029.15
2017-01-20T08:38:04.219Z,1029.16
2017-01-20T08:38:44.739Z,1029.21
2017-01-20T08:39:25.257Z,1029.18
2017-01-20T08:40:05.779Z,1029.19
2017-01-20T08:40:46.311Z,1029.23
2017-01-20T08:41:26.839Z,1029.15
2017-01-20T08:42:07.360Z,1029.12
2017-01-20T08:42:47.890Z,1029.16
2017-01-20T08:43:28.421Z,1029.13
2017-01-20T08:44:08.958Z,1029.16
2017-01-20T08:44:49.489Z,1029.13
2017-01-20T08:45:30.010Z,1029.17
2017-01-20T08:46:10.544Z,1029.17
2017-01-20T08:46:51.071Z,1029.18
2017-01-20T08:47:31.600Z,1029.17
2017-01-20T08:48:12.135Z,1029.18
2017-01-20T08:48:52.663Z,1029.18
2017-01-20T08:49:33.184Z,1029.21
2017-01-20T08:50:13.717Z,1029.21
2017-01-20T08:50:54.229Z,1029.24
2017-01-20T08:51:34.754Z,1029.2